sensor_id;sensor_type;location;lat;lon;timestamp;temperature;humidity
68385;DHT22;55336;43.062;25.626;2023-06-22T00:02:17;18.10;99.90
68385;DHT22;55336;43.062;25.626;2023-06-22T00:04:43;18.30;99.90
68385;DHT22;55336;43.062;25.626;2023-06-22T00:07:09;18.10;99.90
68385;DHT22;55336;43.062;25.626;2023-06-22T00:09:35;18.00;99.90
68385;DHT22;55336;43.062;25.626;2023-06-22T00:12:01;18.10;99.90
68385;DHT22;55336;43.062;25.626;2023-06-22T00:14:27;18.00;99.90
68385;DHT22;55336;43.062;25.626;2023-06-22T00:16:54;17.90;99.90
68385;DHT22;55336;43.062;25.626;2023-06-22T00:19:26;17.90;99.90
68385;DHT22;55336;43.062;25.626;2023-06-22T00:21:52;17.90;99.90
68385;DHT22;55336;43.062;25.626;2023-06-22T00:24:19;17.80;99.90
68385;DHT22;55336;43.062;25.626;2023-06-22T00:26:45;17.80;99.90
68385;DHT22;55336;43.062;25.626;2023-06-22T00:29:12;17.70;99.90
68385;DHT22;55336;43.062;25.626;2023-06-22T00:31:37;17.80;99.90
68385;DHT22;55336;43.062;25.626;2023-06-22T00:34:04;17.80;99.90
68385;DHT22;55336;43.062;25.626;2023-06-22T00:36:32;17.80;99.90
68385;DHT22;55336;43.062;25.626;2023-06-22T00:38:58;17.70;99.90
68385;DHT22;55336;43.062;25.626;2023-06-22T00:41:24;17.70;99.90
68385;DHT22;55336;43.062;25.626;2023-06-22T00:43:54;17.70;99.90
68385;DHT22;55336;43.062;25.626;2023-06-22T00:46:24;17.70;99.90
68385;DHT22;55336;43.062;25.626;2023-06-22T00:48:51;17.60;99.90
68385;DHT22;55336;43.062;25.626;2023-06-22T00:51:17;17.70;99.90
68385;DHT22;55336;43.062;25.626;2023-06-22T00:53:43;17.60;99.90
68385;DHT22;55336;43.062;25.626;2023-06-22T00:56:10;17.60;99.90
68385;DHT22;55336;43.062;25.626;2023-06-22T00:58:39;17.60;99.90
68385;DHT22;55336;43.062;25.626;2023-06-22T01:01:07;17.60;99.90
68385;DHT22;55336;43.062;25.626;2023-06-22T01:03:33;17.50;99.90
68385;DHT22;55336;43.062;25.626;2023-06-22T01:06:02;17.50;99.90
68385;DHT22;55336;43.062;25.626;2023-06-22T01:08:47;17.50;99.90
68385;DHT22;55336;43.062;25.626;2023-06-22T01:11:32;17.50;99.90
68385;DHT22;55336;43.062;25.626;2023-06-22T01:14:23;17.50;99.90
68385;DHT22;55336;43.062;25.626;2023-06-22T01:16:53;17.50;99.90
68385;DHT22;55336;43.062;25.626;2023-06-22T01:19:43;17.20;99.90
68385;DHT22;55336;43.062;25.626;2023-06-22T01:22:12;17.40;99.90
68385;DHT22;55336;43.062;25.626;2023-06-22T01:27:14;17.30;99.90
68385;DHT22;55336;43.062;25.626;2023-06-22T01:29:52;17.30;99.90
68385;DHT22;55336;43.062;25.626;2023-06-22T01:32:24;17.30;99.90
68385;DHT22;55336;43.062;25.626;2023-06-22T01:34:52;17.20;99.90
68385;DHT22;55336;43.062;25.626;2023-06-22T01:37:18;17.20;99.90
68385;DHT22;55336;43.062;25.626;2023-06-22T01:39:47;17.20;99.90
68385;DHT22;55336;43.062;25.626;2023-06-22T01:42:13;17.20;99.90
68385;DHT22;55336;43.062;25.626;2023-06-22T01:44:39;17.10;99.90
68385;DHT22;55336;43.062;25.626;2023-06-22T01:47:06;17.10;99.90
68385;DHT22;55336;43.062;25.626;2023-06-22T01:49:33;17.10;99.90
68385;DHT22;55336;43.062;25.626;2023-06-22T01:51:58;17.20;99.90
68385;DHT22;55336;43.062;25.626;2023-06-22T01:54:24;17.10;99.90
68385;DHT22;55336;43.062;25.626;2023-06-22T01:56:50;17.10;99.90
68385;DHT22;55336;43.062;25.626;2023-06-22T01:59:20;17.10;99.90
68385;DHT22;55336;43.062;25.626;2023-06-22T02:02:07;17.10;99.90
68385;DHT22;55336;43.062;25.626;2023-06-22T02:05:19;17.10;99.90
68385;DHT22;55336;43.062;25.626;2023-06-22T02:07:44;17.00;99.90
68385;DHT22;55336;43.062;25.626;2023-06-22T02:10:14;17.10;99.90
68385;DHT22;55336;43.062;25.626;2023-06-22T02:12:45;17.10;99.90
68385;DHT22;55336;43.062;25.626;2023-06-22T02:15:12;17.40;99.90
68385;DHT22;55336;43.062;25.626;2023-06-22T02:17:43;17.00;99.90
68385;DHT22;55336;43.062;25.626;2023-06-22T02:20:14;17.00;99.90
68385;DHT22;55336;43.062;25.626;2023-06-22T02:22:40;16.90;99.90
68385;DHT22;55336;43.062;25.626;2023-06-22T02:25:06;16.90;99.90
68385;DHT22;55336;43.062;25.626;2023-06-22T02:27:32;16.90;99.90
68385;DHT22;55336;43.062;25.626;2023-06-22T02:29:58;16.90;99.90
68385;DHT22;55336;43.062;25.626;2023-06-22T02:32:24;16.80;99.90
68385;DHT22;55336;43.062;25.626;2023-06-22T02:34:52;16.80;99.90
68385;DHT22;55336;43.062;25.626;2023-06-22T02:37:19;16.80;99.90
68385;DHT22;55336;43.062;25.626;2023-06-22T02:39:45;16.80;99.90
68385;DHT22;55336;43.062;25.626;2023-06-22T02:42:11;16.80;99.90
68385;DHT22;55336;43.062;25.626;2023-06-22T02:44:37;16.80;99.90
68385;DHT22;55336;43.062;25.626;2023-06-22T02:47:03;16.80;99.90
68385;DHT22;55336;43.062;25.626;2023-06-22T02:49:29;16.80;99.90
68385;DHT22;55336;43.062;25.626;2023-06-22T02:51:56;16.80;99.90
68385;DHT22;55336;43.062;25.626;2023-06-22T02:54:23;16.80;99.90
68385;DHT22;55336;43.062;25.626;2023-06-22T02:56:49;16.80;99.90
68385;DHT22;55336;43.062;25.626;2023-06-22T02:59:16;16.80;99.90
68385;DHT22;55336;43.062;25.626;2023-06-22T03:01:42;16.90;99.90
68385;DHT22;55336;43.062;25.626;2023-06-22T03:04:09;16.90;99.90
68385;DHT22;55336;43.062;25.626;2023-06-22T03:06:38;16.90;99.90
68385;DHT22;55336;43.062;25.626;2023-06-22T03:09:06;16.90;99.90
68385;DHT22;55336;43.062;25.626;2023-06-22T03:11:33;17.00;99.90
68385;DHT22;55336;43.062;25.626;2023-06-22T03:14:00;17.00;99.90
68385;DHT22;55336;43.062;25.626;2023-06-22T03:16:26;16.90;99.90
68385;DHT22;55336;43.062;25.626;2023-06-22T03:18:52;17.00;99.90
68385;DHT22;55336;43.062;25.626;2023-06-22T03:21:22;17.00;99.90
68385;DHT22;55336;43.062;25.626;2023-06-22T03:23:49;17.00;99.90
68385;DHT22;55336;43.062;25.626;2023-06-22T03:26:17;17.00;99.90
68385;DHT22;55336;43.062;25.626;2023-06-22T03:28:44;17.10;99.90
68385;DHT22;55336;43.062;25.626;2023-06-22T03:31:10;17.10;99.90
68385;DHT22;55336;43.062;25.626;2023-06-22T03:33:35;17.00;99.90
68385;DHT22;55336;43.062;25.626;2023-06-22T03:36:02;17.00;99.90
68385;DHT22;55336;43.062;25.626;2023-06-22T03:38:28;17.10;99.90
68385;DHT22;55336;43.062;25.626;2023-06-22T03:40:54;17.10;99.90
68385;DHT22;55336;43.062;25.626;2023-06-22T03:43:19;17.20;99.90
68385;DHT22;55336;43.062;25.626;2023-06-22T03:45:46;17.20;99.90
68385;DHT22;55336;43.062;25.626;2023-06-22T03:48:12;17.30;99.90
68385;DHT22;55336;43.062;25.626;2023-06-22T03:50:38;17.40;99.90
68385;DHT22;55336;43.062;25.626;2023-06-22T03:53:04;17.60;99.90
68385;DHT22;55336;43.062;25.626;2023-06-22T03:55:30;17.70;99.90
68385;DHT22;55336;43.062;25.626;2023-06-22T03:57:55;17.80;99.90
68385;DHT22;55336;43.062;25.626;2023-06-22T04:00:23;17.90;99.90
68385;DHT22;55336;43.062;25.626;2023-06-22T04:02:49;17.90;99.90
68385;DHT22;55336;43.062;25.626;2023-06-22T04:05:15;18.00;99.90
68385;DHT22;55336;43.062;25.626;2023-06-22T04:07:45;18.00;99.90
68385;DHT22;55336;43.062;25.626;2023-06-22T04:10:11;18.10;99.90
68385;DHT22;55336;43.062;25.626;2023-06-22T04:12:36;18.30;99.90
68385;DHT22;55336;43.062;25.626;2023-06-22T04:15:03;18.50;99.90
68385;DHT22;55336;43.062;25.626;2023-06-22T04:17:29;18.70;99.90
68385;DHT22;55336;43.062;25.626;2023-06-22T04:19:55;18.70;99.90
68385;DHT22;55336;43.062;25.626;2023-06-22T04:22:21;18.90;99.90
68385;DHT22;55336;43.062;25.626;2023-06-22T04:24:46;19.20;99.90
68385;DHT22;55336;43.062;25.626;2023-06-22T04:27:12;19.40;99.90
68385;DHT22;55336;43.062;25.626;2023-06-22T04:29:38;19.60;99.90
68385;DHT22;55336;43.062;25.626;2023-06-22T04:32:09;19.80;99.90
68385;DHT22;55336;43.062;25.626;2023-06-22T04:34:38;20.00;99.90
68385;DHT22;55336;43.062;25.626;2023-06-22T04:37:04;20.20;99.90
68385;DHT22;55336;43.062;25.626;2023-06-22T04:39:30;20.30;99.90
68385;DHT22;55336;43.062;25.626;2023-06-22T04:41:57;20.60;99.90
68385;DHT22;55336;43.062;25.626;2023-06-22T04:44:26;20.50;99.90
68385;DHT22;55336;43.062;25.626;2023-06-22T04:47:02;20.70;99.90
68385;DHT22;55336;43.062;25.626;2023-06-22T04:49:34;21.00;99.90
68385;DHT22;55336;43.062;25.626;2023-06-22T04:52:07;21.00;99.90
68385;DHT22;55336;43.062;25.626;2023-06-22T04:54:35;21.10;99.90
68385;DHT22;55336;43.062;25.626;2023-06-22T04:57:02;21.10;99.90
68385;DHT22;55336;43.062;25.626;2023-06-22T04:59:30;21.10;99.90
68385;DHT22;55336;43.062;25.626;2023-06-22T05:02:00;21.00;99.90
68385;DHT22;55336;43.062;25.626;2023-06-22T05:04:27;21.40;99.90
68385;DHT22;55336;43.062;25.626;2023-06-22T05:06:54;21.70;99.90
68385;DHT22;55336;43.062;25.626;2023-06-22T05:09:20;22.20;99.90
68385;DHT22;55336;43.062;25.626;2023-06-22T05:11:47;22.20;99.90
68385;DHT22;55336;43.062;25.626;2023-06-22T05:14:13;21.90;99.90
68385;DHT22;55336;43.062;25.626;2023-06-22T05:16:40;22.10;99.90
68385;DHT22;55336;43.062;25.626;2023-06-22T05:19:06;22.40;99.90
68385;DHT22;55336;43.062;25.626;2023-06-22T05:21:32;23.00;99.90
68385;DHT22;55336;43.062;25.626;2023-06-22T05:23:58;23.30;99.90
68385;DHT22;55336;43.062;25.626;2023-06-22T05:26:29;23.60;99.90
68385;DHT22;55336;43.062;25.626;2023-06-22T05:28:55;24.00;99.90
68385;DHT22;55336;43.062;25.626;2023-06-22T05:31:22;24.30;99.90
68385;DHT22;55336;43.062;25.626;2023-06-22T05:33:48;24.50;99.90
68385;DHT22;55336;43.062;25.626;2023-06-22T05:36:14;24.90;99.90
68385;DHT22;55336;43.062;25.626;2023-06-22T05:38:41;24.70;99.90
68385;DHT22;55336;43.062;25.626;2023-06-22T05:41:07;25.10;99.90
68385;DHT22;55336;43.062;25.626;2023-06-22T05:43:33;25.30;99.90
68385;DHT22;55336;43.062;25.626;2023-06-22T05:45:59;25.50;99.90
68385;DHT22;55336;43.062;25.626;2023-06-22T05:48:25;25.70;99.90
68385;DHT22;55336;43.062;25.626;2023-06-22T05:50:51;26.00;99.90
68385;DHT22;55336;43.062;25.626;2023-06-22T05:53:17;26.10;99.90
68385;DHT22;55336;43.062;25.626;2023-06-22T05:55:43;26.20;99.90
68385;DHT22;55336;43.062;25.626;2023-06-22T05:58:09;26.60;99.90
68385;DHT22;55336;43.062;25.626;2023-06-22T06:00:35;26.70;99.90
68385;DHT22;55336;43.062;25.626;2023-06-22T06:03:00;26.90;99.90
68385;DHT22;55336;43.062;25.626;2023-06-22T06:05:38;26.70;99.90
68385;DHT22;55336;43.062;25.626;2023-06-22T06:08:05;26.30;99.90
68385;DHT22;55336;43.062;25.626;2023-06-22T06:10:32;26.90;99.90
68385;DHT22;55336;43.062;25.626;2023-06-22T06:12:59;26.70;99.90
68385;DHT22;55336;43.062;25.626;2023-06-22T06:15:26;27.30;99.90
68385;DHT22;55336;43.062;25.626;2023-06-22T06:17:52;27.50;99.90
68385;DHT22;55336;43.062;25.626;2023-06-22T06:20:22;27.80;99.90
68385;DHT22;55336;43.062;25.626;2023-06-22T06:22:48;27.90;99.90
68385;DHT22;55336;43.062;25.626;2023-06-22T06:25:14;28.10;99.90
68385;DHT22;55336;43.062;25.626;2023-06-22T06:27:50;28.60;99.90
68385;DHT22;55336;43.062;25.626;2023-06-22T06:30:18;28.80;99.90
68385;DHT22;55336;43.062;25.626;2023-06-22T06:32:44;28.00;99.90
68385;DHT22;55336;43.062;25.626;2023-06-22T06:35:12;27.80;99.90
68385;DHT22;55336;43.062;25.626;2023-06-22T06:37:40;28.50;99.90
68385;DHT22;55336;43.062;25.626;2023-06-22T06:40:07;28.80;99.90
68385;DHT22;55336;43.062;25.626;2023-06-22T06:42:40;29.20;99.90
68385;DHT22;55336;43.062;25.626;2023-06-22T06:45:19;29.70;99.90
68385;DHT22;55336;43.062;25.626;2023-06-22T06:47:45;30.00;99.90
68385;DHT22;55336;43.062;25.626;2023-06-22T06:50:12;29.90;97.90
68385;DHT22;55336;43.062;25.626;2023-06-22T06:52:38;30.30;97.90
68385;DHT22;55336;43.062;25.626;2023-06-22T06:55:04;30.80;99.90
68385;DHT22;55336;43.062;25.626;2023-06-22T06:57:33;30.60;95.20
68385;DHT22;55336;43.062;25.626;2023-06-22T06:59:59;29.90;99.90
68385;DHT22;55336;43.062;25.626;2023-06-22T07:02:26;30.20;98.00
68385;DHT22;55336;43.062;25.626;2023-06-22T07:04:53;30.50;91.40
68385;DHT22;55336;43.062;25.626;2023-06-22T07:07:21;30.60;92.50
68385;DHT22;55336;43.062;25.626;2023-06-22T07:09:47;30.90;92.20
68385;DHT22;55336;43.062;25.626;2023-06-22T07:12:12;31.00;99.90
68385;DHT22;55336;43.062;25.626;2023-06-22T07:14:38;30.70;98.70
68385;DHT22;55336;43.062;25.626;2023-06-22T07:17:04;30.90;87.00
68385;DHT22;55336;43.062;25.626;2023-06-22T07:19:30;31.00;85.00
68385;DHT22;55336;43.062;25.626;2023-06-22T07:21:56;31.20;83.20
68385;DHT22;55336;43.062;25.626;2023-06-22T07:24:23;31.60;81.90
68385;DHT22;55336;43.062;25.626;2023-06-22T07:26:50;31.70;75.50
68385;DHT22;55336;43.062;25.626;2023-06-22T07:29:19;31.80;74.80
68385;DHT22;55336;43.062;25.626;2023-06-22T07:31:47;32.20;73.90
68385;DHT22;55336;43.062;25.626;2023-06-22T07:34:13;31.80;76.30
68385;DHT22;55336;43.062;25.626;2023-06-22T07:36:39;31.60;83.20
68385;DHT22;55336;43.062;25.626;2023-06-22T07:39:05;31.60;75.20
68385;DHT22;55336;43.062;25.626;2023-06-22T07:41:31;31.50;71.30
68385;DHT22;55336;43.062;25.626;2023-06-22T07:43:57;31.70;71.90
68385;DHT22;55336;43.062;25.626;2023-06-22T07:46:23;31.90;69.50
68385;DHT22;55336;43.062;25.626;2023-06-22T07:48:49;30.90;84.10
68385;DHT22;55336;43.062;25.626;2023-06-22T07:51:15;31.40;90.40
68385;DHT22;55336;43.062;25.626;2023-06-22T07:53:42;31.40;81.30
68385;DHT22;55336;43.062;25.626;2023-06-22T07:56:10;31.70;79.00
68385;DHT22;55336;43.062;25.626;2023-06-22T07:58:36;32.30;73.40
68385;DHT22;55336;43.062;25.626;2023-06-22T08:01:02;32.70;69.70
68385;DHT22;55336;43.062;25.626;2023-06-22T08:03:29;32.70;68.20
68385;DHT22;55336;43.062;25.626;2023-06-22T08:05:55;32.80;64.80
68385;DHT22;55336;43.062;25.626;2023-06-22T08:08:21;32.70;69.40
68385;DHT22;55336;43.062;25.626;2023-06-22T08:10:47;31.80;80.80
68385;DHT22;55336;43.062;25.626;2023-06-22T08:13:13;31.80;77.60
68385;DHT22;55336;43.062;25.626;2023-06-22T08:15:38;31.70;78.40
68385;DHT22;55336;43.062;25.626;2023-06-22T08:18:05;32.50;70.60
68385;DHT22;55336;43.062;25.626;2023-06-22T08:20:31;33.30;65.20
68385;DHT22;55336;43.062;25.626;2023-06-22T08:22:57;33.80;59.10
68385;DHT22;55336;43.062;25.626;2023-06-22T08:25:25;33.80;59.60
68385;DHT22;55336;43.062;25.626;2023-06-22T08:27:51;33.30;62.00
68385;DHT22;55336;43.062;25.626;2023-06-22T08:30:18;33.50;60.70
68385;DHT22;55336;43.062;25.626;2023-06-22T08:32:44;33.90;57.70
68385;DHT22;55336;43.062;25.626;2023-06-22T08:35:10;34.00;58.20
68385;DHT22;55336;43.062;25.626;2023-06-22T08:37:36;32.90;60.10
68385;DHT22;55336;43.062;25.626;2023-06-22T08:40:06;32.30;66.90
68385;DHT22;55336;43.062;25.626;2023-06-22T08:42:34;32.40;65.20
68385;DHT22;55336;43.062;25.626;2023-06-22T08:45:00;33.60;57.40
68385;DHT22;55336;43.062;25.626;2023-06-22T08:47:27;34.40;53.90
68385;DHT22;55336;43.062;25.626;2023-06-22T08:49:53;34.50;52.00
68385;DHT22;55336;43.062;25.626;2023-06-22T08:52:19;34.90;50.80
68385;DHT22;55336;43.062;25.626;2023-06-22T08:54:46;34.90;50.50
68385;DHT22;55336;43.062;25.626;2023-06-22T08:57:12;35.40;51.60
68385;DHT22;55336;43.062;25.626;2023-06-22T08:59:37;35.20;50.90
68385;DHT22;55336;43.062;25.626;2023-06-22T09:02:03;34.90;49.20
68385;DHT22;55336;43.062;25.626;2023-06-22T09:04:29;35.00;54.50
68385;DHT22;55336;43.062;25.626;2023-06-22T09:06:55;35.20;49.10
68385;DHT22;55336;43.062;25.626;2023-06-22T09:09:21;35.50;49.90
68385;DHT22;55336;43.062;25.626;2023-06-22T09:11:48;35.50;47.10
68385;DHT22;55336;43.062;25.626;2023-06-22T09:14:13;34.70;49.40
68385;DHT22;55336;43.062;25.626;2023-06-22T09:16:39;35.10;48.80
68385;DHT22;55336;43.062;25.626;2023-06-22T09:19:05;34.80;50.90
68385;DHT22;55336;43.062;25.626;2023-06-22T09:21:31;35.40;47.10
68385;DHT22;55336;43.062;25.626;2023-06-22T09:23:57;35.60;46.50
68385;DHT22;55336;43.062;25.626;2023-06-22T09:26:23;35.60;45.60
68385;DHT22;55336;43.062;25.626;2023-06-22T09:28:49;35.60;45.50
68385;DHT22;55336;43.062;25.626;2023-06-22T09:31:15;35.40;50.80
68385;DHT22;55336;43.062;25.626;2023-06-22T09:33:42;36.00;47.70
68385;DHT22;55336;43.062;25.626;2023-06-22T09:36:08;36.20;43.50
68385;DHT22;55336;43.062;25.626;2023-06-22T09:38:37;36.10;44.30
68385;DHT22;55336;43.062;25.626;2023-06-22T09:41:03;36.00;42.00
68385;DHT22;55336;43.062;25.626;2023-06-22T09:43:31;36.40;42.90
68385;DHT22;55336;43.062;25.626;2023-06-22T09:45:57;36.40;40.60
68385;DHT22;55336;43.062;25.626;2023-06-22T09:48:23;36.20;40.90
68385;DHT22;55336;43.062;25.626;2023-06-22T09:50:48;36.00;43.90
68385;DHT22;55336;43.062;25.626;2023-06-22T09:53:15;36.20;42.50
68385;DHT22;55336;43.062;25.626;2023-06-22T09:55:40;35.90;42.90
68385;DHT22;55336;43.062;25.626;2023-06-22T09:58:07;36.00;45.40
68385;DHT22;55336;43.062;25.626;2023-06-22T10:00:34;35.70;45.20
68385;DHT22;55336;43.062;25.626;2023-06-22T10:02:59;35.90;44.50
68385;DHT22;55336;43.062;25.626;2023-06-22T10:05:25;35.70;45.00
68385;DHT22;55336;43.062;25.626;2023-06-22T10:07:51;35.70;44.50
68385;DHT22;55336;43.062;25.626;2023-06-22T10:10:17;36.20;43.70
68385;DHT22;55336;43.062;25.626;2023-06-22T10:12:54;35.90;44.40
68385;DHT22;55336;43.062;25.626;2023-06-22T10:15:20;36.30;43.80
68385;DHT22;55336;43.062;25.626;2023-06-22T10:17:47;36.40;44.60
68385;DHT22;55336;43.062;25.626;2023-06-22T10:20:13;36.60;43.90
68385;DHT22;55336;43.062;25.626;2023-06-22T10:22:40;36.80;45.10
68385;DHT22;55336;43.062;25.626;2023-06-22T10:25:07;36.70;43.50
68385;DHT22;55336;43.062;25.626;2023-06-22T10:27:33;36.80;44.60
68385;DHT22;55336;43.062;25.626;2023-06-22T10:29:59;36.50;46.30
68385;DHT22;55336;43.062;25.626;2023-06-22T10:32:25;34.90;47.00
68385;DHT22;55336;43.062;25.626;2023-06-22T10:34:50;34.20;47.10
68385;DHT22;55336;43.062;25.626;2023-06-22T10:37:16;32.50;56.00
68385;DHT22;55336;43.062;25.626;2023-06-22T10:39:42;33.10;57.60
68385;DHT22;55336;43.062;25.626;2023-06-22T10:42:08;34.50;45.20
68385;DHT22;55336;43.062;25.626;2023-06-22T10:44:34;35.30;44.40
68385;DHT22;55336;43.062;25.626;2023-06-22T10:46:59;35.70;43.20
68385;DHT22;55336;43.062;25.626;2023-06-22T10:49:25;36.30;44.30
68385;DHT22;55336;43.062;25.626;2023-06-22T10:51:51;36.60;42.60
68385;DHT22;55336;43.062;25.626;2023-06-22T10:54:17;37.00;44.90
68385;DHT22;55336;43.062;25.626;2023-06-22T10:56:44;37.40;41.20
68385;DHT22;55336;43.062;25.626;2023-06-22T10:59:10;37.70;39.90
68385;DHT22;55336;43.062;25.626;2023-06-22T11:01:36;35.60;43.40
68385;DHT22;55336;43.062;25.626;2023-06-22T11:04:02;34.90;48.60
68385;DHT22;55336;43.062;25.626;2023-06-22T11:06:29;33.60;54.30
68385;DHT22;55336;43.062;25.626;2023-06-22T11:08:55;32.50;54.50
68385;DHT22;55336;43.062;25.626;2023-06-22T11:11:21;31.90;52.60
68385;DHT22;55336;43.062;25.626;2023-06-22T11:13:47;32.30;52.60
68385;DHT22;55336;43.062;25.626;2023-06-22T11:16:13;32.20;52.30
68385;DHT22;55336;43.062;25.626;2023-06-22T11:18:38;31.00;66.00
68385;DHT22;55336;43.062;25.626;2023-06-22T11:21:04;31.20;57.00
68385;DHT22;55336;43.062;25.626;2023-06-22T11:23:30;31.40;58.00
68385;DHT22;55336;43.062;25.626;2023-06-22T11:25:55;31.40;57.00
68385;DHT22;55336;43.062;25.626;2023-06-22T11:28:21;31.10;59.70
68385;DHT22;55336;43.062;25.626;2023-06-22T11:30:47;29.60;76.70
68385;DHT22;55336;43.062;25.626;2023-06-22T11:33:14;31.20;70.40
68385;DHT22;55336;43.062;25.626;2023-06-22T11:35:40;32.70;50.50
68385;DHT22;55336;43.062;25.626;2023-06-22T11:38:05;33.80;45.20
68385;DHT22;55336;43.062;25.626;2023-06-22T11:40:31;34.20;42.60
68385;DHT22;55336;43.062;25.626;2023-06-22T11:42:57;34.50;44.20
68385;DHT22;55336;43.062;25.626;2023-06-22T11:45:22;35.10;42.40
68385;DHT22;55336;43.062;25.626;2023-06-22T11:47:48;35.90;38.90
68385;DHT22;55336;43.062;25.626;2023-06-22T11:50:14;36.20;36.30
68385;DHT22;55336;43.062;25.626;2023-06-22T11:52:40;36.40;39.40
68385;DHT22;55336;43.062;25.626;2023-06-22T11:55:06;36.50;38.90
68385;DHT22;55336;43.062;25.626;2023-06-22T11:57:36;36.80;36.20
68385;DHT22;55336;43.062;25.626;2023-06-22T12:00:03;36.60;36.10
68385;DHT22;55336;43.062;25.626;2023-06-22T12:02:50;36.90;36.80
68385;DHT22;55336;43.062;25.626;2023-06-22T12:05:19;36.40;40.00
68385;DHT22;55336;43.062;25.626;2023-06-22T12:07:46;36.70;34.70
68385;DHT22;55336;43.062;25.626;2023-06-22T12:10:12;37.60;34.30
68385;DHT22;55336;43.062;25.626;2023-06-22T12:12:38;37.60;35.70
68385;DHT22;55336;43.062;25.626;2023-06-22T12:15:04;38.10;33.30
68385;DHT22;55336;43.062;25.626;2023-06-22T12:17:31;38.60;31.60
68385;DHT22;55336;43.062;25.626;2023-06-22T12:19:58;38.90;32.70
68385;DHT22;55336;43.062;25.626;2023-06-22T12:22:23;38.10;37.10
68385;DHT22;55336;43.062;25.626;2023-06-22T12:24:49;38.40;34.20
68385;DHT22;55336;43.062;25.626;2023-06-22T12:27:16;38.00;39.90
68385;DHT22;55336;43.062;25.626;2023-06-22T12:29:46;38.70;35.50
68385;DHT22;55336;43.062;25.626;2023-06-22T12:32:13;39.20;34.80
68385;DHT22;55336;43.062;25.626;2023-06-22T12:34:41;37.80;34.60
68385;DHT22;55336;43.062;25.626;2023-06-22T12:37:07;38.50;32.20
68385;DHT22;55336;43.062;25.626;2023-06-22T12:39:33;38.20;31.60
68385;DHT22;55336;43.062;25.626;2023-06-22T12:41:59;38.50;31.00
68385;DHT22;55336;43.062;25.626;2023-06-22T12:44:24;38.70;31.40
68385;DHT22;55336;43.062;25.626;2023-06-22T12:46:50;38.80;30.90
68385;DHT22;55336;43.062;25.626;2023-06-22T12:49:16;38.00;34.50
68385;DHT22;55336;43.062;25.626;2023-06-22T12:51:43;38.60;33.50
68385;DHT22;55336;43.062;25.626;2023-06-22T12:54:09;39.00;34.90
68385;DHT22;55336;43.062;25.626;2023-06-22T12:56:35;38.90;30.40
68385;DHT22;55336;43.062;25.626;2023-06-22T12:59:01;39.60;28.60
68385;DHT22;55336;43.062;25.626;2023-06-22T13:01:27;39.90;31.30
68385;DHT22;55336;43.062;25.626;2023-06-22T13:03:53;39.90;26.60
68385;DHT22;55336;43.062;25.626;2023-06-22T13:06:19;39.90;27.40
68385;DHT22;55336;43.062;25.626;2023-06-22T13:08:45;38.40;30.20
68385;DHT22;55336;43.062;25.626;2023-06-22T13:11:11;38.90;30.20
68385;DHT22;55336;43.062;25.626;2023-06-22T13:13:37;39.40;30.00
68385;DHT22;55336;43.062;25.626;2023-06-22T13:16:03;39.20;31.00
68385;DHT22;55336;43.062;25.626;2023-06-22T13:18:29;39.40;32.20
68385;DHT22;55336;43.062;25.626;2023-06-22T13:20:55;39.40;29.70
68385;DHT22;55336;43.062;25.626;2023-06-22T13:23:21;39.50;38.80
68385;DHT22;55336;43.062;25.626;2023-06-22T13:25:47;39.30;30.40
68385;DHT22;55336;43.062;25.626;2023-06-22T13:28:13;39.50;26.30
68385;DHT22;55336;43.062;25.626;2023-06-22T13:30:41;39.50;27.80
68385;DHT22;55336;43.062;25.626;2023-06-22T13:33:08;40.00;27.30
68385;DHT22;55336;43.062;25.626;2023-06-22T13:35:34;40.10;29.20
68385;DHT22;55336;43.062;25.626;2023-06-22T13:38:03;40.00;30.80
68385;DHT22;55336;43.062;25.626;2023-06-22T13:40:29;39.70;28.70
68385;DHT22;55336;43.062;25.626;2023-06-22T13:42:56;39.10;30.20
68385;DHT22;55336;43.062;25.626;2023-06-22T13:45:44;38.40;31.30
68385;DHT22;55336;43.062;25.626;2023-06-22T13:48:11;38.00;32.60
68385;DHT22;55336;43.062;25.626;2023-06-22T13:50:45;38.40;33.50
68385;DHT22;55336;43.062;25.626;2023-06-22T13:53:15;39.00;33.30
68385;DHT22;55336;43.062;25.626;2023-06-22T13:55:47;38.90;32.30
68385;DHT22;55336;43.062;25.626;2023-06-22T13:58:13;38.60;36.40
68385;DHT22;55336;43.062;25.626;2023-06-22T14:00:56;38.40;35.90
68385;DHT22;55336;43.062;25.626;2023-06-22T14:03:29;37.80;37.70
68385;DHT22;55336;43.062;25.626;2023-06-22T14:06:02;38.00;34.80
68385;DHT22;55336;43.062;25.626;2023-06-22T14:08:28;38.10;36.60
68385;DHT22;55336;43.062;25.626;2023-06-22T14:10:57;38.40;37.00
68385;DHT22;55336;43.062;25.626;2023-06-22T14:13:32;38.70;35.50
68385;DHT22;55336;43.062;25.626;2023-06-22T14:16:08;39.10;36.30
68385;DHT22;55336;43.062;25.626;2023-06-22T14:18:49;38.80;33.40
68385;DHT22;55336;43.062;25.626;2023-06-22T14:21:15;38.50;34.00
68385;DHT22;55336;43.062;25.626;2023-06-22T14:23:41;38.10;42.90
68385;DHT22;55336;43.062;25.626;2023-06-22T14:26:13;38.20;39.30
68385;DHT22;55336;43.062;25.626;2023-06-22T14:28:50;38.20;37.30
68385;DHT22;55336;43.062;25.626;2023-06-22T14:31:18;38.50;37.00
68385;DHT22;55336;43.062;25.626;2023-06-22T14:33:47;38.60;44.00
68385;DHT22;55336;43.062;25.626;2023-06-22T14:36:14;38.40;38.30
68385;DHT22;55336;43.062;25.626;2023-06-22T14:38:40;38.70;35.60
68385;DHT22;55336;43.062;25.626;2023-06-22T14:41:06;37.80;37.90
68385;DHT22;55336;43.062;25.626;2023-06-22T14:43:43;37.80;35.40
68385;DHT22;55336;43.062;25.626;2023-06-22T14:46:26;38.20;34.70
68385;DHT22;55336;43.062;25.626;2023-06-22T14:48:52;38.20;33.90
68385;DHT22;55336;43.062;25.626;2023-06-22T14:51:18;37.70;34.50
68385;DHT22;55336;43.062;25.626;2023-06-22T14:53:44;36.80;37.10
68385;DHT22;55336;43.062;25.626;2023-06-22T14:56:12;36.70;37.10
68385;DHT22;55336;43.062;25.626;2023-06-22T14:58:49;36.60;37.40
68385;DHT22;55336;43.062;25.626;2023-06-22T15:01:26;37.00;37.00
68385;DHT22;55336;43.062;25.626;2023-06-22T15:03:54;36.70;37.70
68385;DHT22;55336;43.062;25.626;2023-06-22T15:09:18;36.50;43.00
68385;DHT22;55336;43.062;25.626;2023-06-22T15:11:47;36.80;45.80
68385;DHT22;55336;43.062;25.626;2023-06-22T15:14:15;37.10;38.20
68385;DHT22;55336;43.062;25.626;2023-06-22T15:16:45;37.10;39.20
68385;DHT22;55336;43.062;25.626;2023-06-22T15:19:16;37.30;39.70
68385;DHT22;55336;43.062;25.626;2023-06-22T15:21:57;37.40;40.00
68385;DHT22;55336;43.062;25.626;2023-06-22T15:24:38;37.20;46.10